createdAt,value
2023-04-07T00:00:41.254Z,40.80
2023-04-07T00:03:11.809Z,41.00
2023-04-07T00:05:42.051Z,40.48
2023-04-07T00:08:12.189Z,40.70
2023-04-07T00:10:42.588Z,41.14
2023-04-07T00:13:12.798Z,40.94
2023-04-07T00:15:45.595Z,40.87
2023-04-07T00:18:15.781Z,41.00
2023-04-07T00:20:45.996Z,41.34
2023-04-07T00:23:16.117Z,41.68
2023-04-07T00:25:46.615Z,41.61
2023-04-07T00:28:16.775Z,41.84
2023-04-07T00:30:49.538Z,41.77
2023-04-07T00:33:19.670Z,41.77
2023-04-07T00:35:49.917Z,41.45
2023-04-07T00:38:20.095Z,41.16
2023-04-07T00:40:50.162Z,41.65
2023-04-07T00:43:20.312Z,41.74
2023-04-07T00:45:53.102Z,41.79
2023-04-07T00:48:23.659Z,42.10
2023-04-07T00:50:53.758Z,42.25
2023-04-07T00:53:24.111Z,42.13
2023-04-07T00:55:54.453Z,42.34
2023-04-07T00:58:24.595Z,42.43
2023-04-07T01:01:02.324Z,42.40
2023-04-07T01:03:35.069Z,42.23
2023-04-07T01:06:06.440Z,42.50
2023-04-07T01:08:41.966Z,42.32
2023-04-07T01:11:17.512Z,42.49
2023-04-07T01:13:51.627Z,42.09
2023-04-07T01:16:37.626Z,42.06
2023-04-07T01:19:15.852Z,41.92
2023-04-07T01:21:53.146Z,42.04
2023-04-07T01:24:36.824Z,41.82
2023-04-07T01:27:18.656Z,41.99
2023-04-07T01:29:52.624Z,41.72
2023-04-07T01:32:25.275Z,41.51
2023-04-07T01:34:57.518Z,41.86
2023-04-07T01:37:28.459Z,43.62
2023-04-07T01:39:59.009Z,43.18
2023-04-07T01:42:29.575Z,42.55
2023-04-07T01:45:02.904Z,42.67
2023-04-07T01:47:33.914Z,43.09
2023-04-07T01:50:05.548Z,43.74
2023-04-07T01:52:36.809Z,43.06
2023-04-07T01:55:09.917Z,43.63
2023-04-07T01:57:45.507Z,43.42
2023-04-07T02:00:22.904Z,43.20
2023-04-07T02:03:02.792Z,42.96
2023-04-07T02:05:34.243Z,42.94
2023-04-07T02:08:07.288Z,43.91
2023-04-07T02:10:40.942Z,44.95
2023-04-07T02:13:13.823Z,44.28
2023-04-07T02:15:47.532Z,43.71
2023-04-07T02:18:21.780Z,44.48
2023-04-07T02:20:54.042Z,45.64
2023-04-07T02:23:24.181Z,46.44
2023-04-07T02:25:54.310Z,46.55
2023-04-07T02:28:24.654Z,47.06
2023-04-07T02:30:57.414Z,48.34
2023-04-07T02:33:28.254Z,49.00
2023-04-07T02:35:58.533Z,48.89
2023-04-07T02:38:28.864Z,46.72
2023-04-07T02:41:00.259Z,45.25
2023-04-07T02:43:33.138Z,45.76
2023-04-07T02:46:05.914Z,47.70
2023-04-07T02:48:36.020Z,47.87
2023-04-07T02:51:06.449Z,48.18
2023-04-07T02:53:36.564Z,49.23
2023-04-07T02:56:08.330Z,48.26
2023-04-07T02:58:38.558Z,50.19
2023-04-07T03:01:11.672Z,48.73
2023-04-07T03:03:45.149Z,49.06
2023-04-07T03:06:19.897Z,49.03
2023-04-07T03:09:01.375Z,49.69
2023-04-07T03:11:31.566Z,50.20
2023-04-07T03:14:03.605Z,49.14
2023-04-07T03:16:37.700Z,49.73
2023-04-07T03:19:11.850Z,48.46
2023-04-07T03:21:46.199Z,49.59
2023-04-07T03:24:16.524Z,49.87
2023-04-07T03:26:46.616Z,50.74
2023-04-07T03:29:23.305Z,50.39
2023-04-07T03:31:57.608Z,49.66
2023-04-07T03:34:28.720Z,49.83
2023-04-07T03:37:00.824Z,49.62
2023-04-07T03:39:33.411Z,49.85
2023-04-07T03:42:04.824Z,50.13
2023-04-07T03:44:36.892Z,50.49
2023-04-07T03:47:09.777Z,49.91
2023-04-07T03:49:41.441Z,49.36
2023-04-07T03:52:11.584Z,50.18
2023-04-07T03:54:43.000Z,50.16
2023-04-07T03:57:13.589Z,50.69
2023-04-07T03:59:51.341Z,51.55
2023-04-07T04:02:24.828Z,52.11
2023-04-07T04:04:57.703Z,52.17
2023-04-07T04:07:28.628Z,51.66
2023-04-07T04:10:04.350Z,51.49
2023-04-07T04:12:41.811Z,51.62
2023-04-07T04:15:14.717Z,52.59
2023-04-07T04:17:47.679Z,52.02
2023-04-07T04:20:18.650Z,51.97
2023-04-07T04:22:52.060Z,52.23
2023-04-07T04:25:23.469Z,53.06
2023-04-07T04:27:57.804Z,52.39
2023-04-07T04:30:30.009Z,53.06
2023-04-07T04:33:07.974Z,52.67
2023-04-07T04:35:48.586Z,53.20
2023-04-07T04:38:22.225Z,53.39
2023-04-07T04:41:06.564Z,53.07
2023-04-07T04:43:37.526Z,53.69
2023-04-07T04:46:09.061Z,53.56
2023-04-07T04:48:46.896Z,54.60
2023-04-07T04:51:17.203Z,53.52
2023-04-07T04:53:50.983Z,53.81
2023-04-07T04:56:22.166Z,53.08
2023-04-07T04:58:53.605Z,53.08
2023-04-07T05:01:42.514Z,52.32
2023-04-07T05:04:19.436Z,51.96
2023-04-07T05:06:58.135Z,51.75
2023-04-07T05:09:31.609Z,52.38
2023-04-07T05:12:02.077Z,52.59
2023-04-07T05:14:35.533Z,53.54
2023-04-07T05:17:09.318Z,53.16
2023-04-07T05:19:42.100Z,53.13
2023-04-07T05:22:18.580Z,53.88
2023-04-07T05:24:51.220Z,53.92
2023-04-07T05:27:21.864Z,52.84
2023-04-07T05:29:56.714Z,52.31
2023-04-07T05:32:32.595Z,52.03
2023-04-07T05:35:12.256Z,52.96
2023-04-07T05:37:48.651Z,53.82
2023-04-07T05:40:19.473Z,53.08
2023-04-07T05:42:50.465Z,53.54
2023-04-07T05:45:20.792Z,53.96
2023-04-07T05:47:53.343Z,54.17
2023-04-07T05:50:32.762Z,52.93
2023-04-07T05:53:07.187Z,52.02
2023-04-07T05:55:37.469Z,51.94
2023-04-07T05:58:10.628Z,52.31
2023-04-07T06:00:43.889Z,52.56
2023-04-07T06:03:18.539Z,52.77
2023-04-07T06:06:12.228Z,52.51
2023-04-07T06:08:42.549Z,51.13
2023-04-07T06:11:12.706Z,50.73
2023-04-07T06:13:42.907Z,50.15
2023-04-07T06:16:13.169Z,50.18
2023-04-07T06:18:43.606Z,48.72
2023-04-07T06:21:16.447Z,48.03
2023-04-07T06:23:46.669Z,48.00
2023-04-07T06:26:16.933Z,47.11
2023-04-07T06:28:47.103Z,45.76
2023-04-07T06:31:18.914Z,45.73
2023-04-07T06:33:49.843Z,44.99
2023-04-07T06:36:23.779Z,45.26
2023-04-07T06:38:56.572Z,43.44
2023-04-07T06:41:26.729Z,43.59
2023-04-07T06:43:57.027Z,43.38
2023-04-07T06:46:27.586Z,43.07
2023-04-07T06:48:57.703Z,43.39
2023-04-07T06:51:30.468Z,41.68
2023-04-07T06:54:00.812Z,41.01
2023-04-07T06:56:31.000Z,40.48
2023-04-07T06:59:01.094Z,39.57
2023-04-07T07:01:31.319Z,38.81
2023-04-07T07:04:01.745Z,39.03
2023-04-07T07:06:34.822Z,38.63
2023-04-07T07:09:05.442Z,38.17
2023-04-07T07:11:35.794Z,37.99
2023-04-07T07:14:05.993Z,37.77
2023-04-07T07:16:37.429Z,37.26
2023-04-07T07:19:07.716Z,37.06
2023-04-07T07:21:40.516Z,36.88
2023-04-07T07:24:10.933Z,37.57
2023-04-07T07:26:43.490Z,36.61
2023-04-07T07:29:14.375Z,36.44
2023-04-07T07:31:44.712Z,35.69
2023-04-07T07:34:14.863Z,36.16
2023-04-07T07:36:47.694Z,35.88
2023-04-07T07:39:17.901Z,36.04
2023-04-07T07:41:48.112Z,35.45
2023-04-07T07:44:20.341Z,35.20
2023-04-07T07:46:50.672Z,34.67
2023-04-07T07:49:21.879Z,34.54
2023-04-07T07:51:54.686Z,34.66
2023-04-07T07:54:24.868Z,34.62
2023-04-07T07:56:55.062Z,35.18
2023-04-07T07:59:25.232Z,34.01
2023-04-07T08:01:55.337Z,32.62
2023-04-07T08:04:26.483Z,32.92
2023-04-07T08:06:59.320Z,31.73
2023-04-07T08:09:29.447Z,32.38
2023-04-07T08:11:59.538Z,32.46
2023-04-07T08:14:29.676Z,32.62
2023-04-07T08:16:59.830Z,31.83
2023-04-07T08:19:29.984Z,32.07
2023-04-07T08:22:02.724Z,31.91
2023-04-07T08:24:32.908Z,32.66
2023-04-07T08:27:03.060Z,31.68
2023-04-07T08:29:33.357Z,31.12
2023-04-07T08:32:03.553Z,31.12
2023-04-07T08:34:33.737Z,31.47
2023-04-07T08:37:06.511Z,31.93
2023-04-07T08:39:36.729Z,31.94
2023-04-07T08:42:07.038Z,31.93
2023-04-07T08:44:37.563Z,31.36
2023-04-07T08:47:11.786Z,31.27
2023-04-07T08:49:44.274Z,30.97
2023-04-07T08:52:18.879Z,31.22
2023-04-07T08:54:49.093Z,31.58
2023-04-07T08:57:19.645Z,31.46
2023-04-07T08:59:51.679Z,31.18
2023-04-07T09:02:22.860Z,30.38
2023-04-07T09:04:53.056Z,30.57
2023-04-07T09:07:25.956Z,30.09
2023-04-07T09:09:56.244Z,30.30
2023-04-07T09:12:26.478Z,29.54
2023-04-07T09:14:56.778Z,29.12
2023-04-07T09:17:28.961Z,28.33
2023-04-07T09:20:00.302Z,28.94
2023-04-07T09:22:43.720Z,26.93
2023-04-07T09:25:19.161Z,26.75
2023-04-07T09:28:01.226Z,26.86
2023-04-07T09:30:32.500Z,26.85
2023-04-07T09:33:03.735Z,25.42
2023-04-07T09:35:35.873Z,25.29
2023-04-07T09:38:10.067Z,25.63
2023-04-07T09:40:40.379Z,26.24
2023-04-07T09:43:19.103Z,24.40
2023-04-07T09:45:49.357Z,24.93
2023-04-07T09:48:22.337Z,24.96
2023-04-07T09:50:52.448Z,24.65
2023-04-07T09:53:44.928Z,23.48
2023-04-07T09:56:16.421Z,23.58
2023-04-07T09:58:48.677Z,23.21
2023-04-07T10:01:19.923Z,21.93
2023-04-07T10:03:51.828Z,22.83
2023-04-07T10:06:23.618Z,22.17
2023-04-07T10:08:56.494Z,22.60
2023-04-07T10:11:26.820Z,22.22
2023-04-07T10:13:57.446Z,22.42
2023-04-07T10:16:28.144Z,20.41
2023-04-07T10:18:58.707Z,21.66
2023-04-07T10:21:29.374Z,21.10
2023-04-07T10:24:11.275Z,21.53
2023-04-07T10:26:42.072Z,21.40
2023-04-07T10:29:15.316Z,21.37
2023-04-07T10:31:45.931Z,20.72
2023-04-07T10:34:16.442Z,21.26
2023-04-07T10:37:14.833Z,20.63
2023-04-07T10:39:47.706Z,20.04
2023-04-07T10:42:47.827Z,21.51
2023-04-07T10:45:18.133Z,20.29
2023-04-07T10:48:12.625Z,20.56
2023-04-07T10:50:43.312Z,20.47
2023-04-07T10:53:14.599Z,20.09
2023-04-07T10:55:48.200Z,19.35
2023-04-07T10:58:29.175Z,18.87
2023-04-07T11:01:23.645Z,20.11
2023-04-07T11:04:02.419Z,19.53
2023-04-07T11:06:32.902Z,20.44
2023-04-07T11:09:03.509Z,21.78
2023-04-07T11:11:45.327Z,21.33
2023-04-07T11:14:15.500Z,22.50
2023-04-07T11:16:46.675Z,23.12
2023-04-07T11:19:16.787Z,22.88
2023-04-07T11:21:47.030Z,22.04
2023-04-07T11:24:40.631Z,22.42
2023-04-07T11:27:15.684Z,21.98
2023-04-07T11:29:46.163Z,22.93
2023-04-07T11:32:16.752Z,23.05
2023-04-07T11:34:46.895Z,22.50
2023-04-07T11:37:23.581Z,22.34
2023-04-07T11:39:57.090Z,22.07
2023-04-07T11:42:40.289Z,21.33
2023-04-07T11:45:19.891Z,21.23
2023-04-07T11:47:51.197Z,22.95
2023-04-07T11:50:41.443Z,23.33
2023-04-07T11:53:12.100Z,23.34
2023-04-07T11:55:42.311Z,24.50
2023-04-07T11:58:15.803Z,24.44
2023-04-07T12:00:57.505Z,24.18
2023-04-07T12:03:27.862Z,24.92
2023-04-07T12:05:58.196Z,24.38
2023-04-07T12:08:40.511Z,25.80
2023-04-07T12:11:11.167Z,25.98
2023-04-07T12:13:44.002Z,25.72
2023-04-07T12:16:14.226Z,25.80
2023-04-07T12:18:44.541Z,26.28
2023-04-07T12:21:14.762Z,26.57
2023-04-07T12:23:45.045Z,26.36
2023-04-07T12:26:15.298Z,27.39
2023-04-07T12:28:48.716Z,26.81
2023-04-07T12:31:18.936Z,26.43
2023-04-07T12:33:49.540Z,25.18
2023-04-07T12:36:20.065Z,23.82
2023-04-07T12:38:50.309Z,22.03
2023-04-07T12:41:20.513Z,22.28
2023-04-07T12:43:53.481Z,20.69
2023-04-07T12:46:24.097Z,20.09
2023-04-07T12:48:54.619Z,19.16
2023-04-07T12:51:24.802Z,18.86
2023-04-07T12:53:54.902Z,17.96
2023-04-07T12:56:25.340Z,16.99
2023-04-07T12:58:58.191Z,18.11
2023-04-07T13:01:28.565Z,18.64
2023-04-07T13:03:58.946Z,18.34
2023-04-07T13:06:29.274Z,18.86
2023-04-07T13:08:59.457Z,18.82
2023-04-07T13:11:29.751Z,19.34
2023-04-07T13:14:02.525Z,19.41
2023-04-07T13:16:32.954Z,19.25
2023-04-07T13:19:04.386Z,19.65
2023-04-07T13:21:46.014Z,19.78
2023-04-07T13:24:17.463Z,17.80
2023-04-07T13:26:47.975Z,18.19
2023-04-07T13:29:20.813Z,18.43
2023-04-07T13:31:51.389Z,19.57
2023-04-07T13:34:21.501Z,19.47
2023-04-07T13:36:51.596Z,19.17
2023-04-07T13:39:21.737Z,19.95
2023-04-07T13:41:51.870Z,20.70
2023-04-07T13:44:24.677Z,20.94
2023-04-07T13:46:54.885Z,21.23
2023-04-07T13:49:25.236Z,21.06
2023-04-07T13:51:55.373Z,20.46
2023-04-07T13:54:25.810Z,18.98
2023-04-07T13:56:55.952Z,19.73
2023-04-07T13:59:28.730Z,19.58
2023-04-07T14:01:58.958Z,19.09
2023-04-07T14:04:29.361Z,17.78
2023-04-07T14:06:59.540Z,17.40
2023-04-07T14:09:30.148Z,18.03
2023-04-07T14:12:01.443Z,17.88
2023-04-07T14:14:34.462Z,18.05
2023-04-07T14:17:04.785Z,18.64
2023-04-07T14:19:35.257Z,19.39
2023-04-07T14:22:05.867Z,18.80
2023-04-07T14:24:36.058Z,17.70
2023-04-07T14:27:06.279Z,17.88
2023-04-07T14:29:39.139Z,17.49
2023-04-07T14:32:09.326Z,17.57
2023-04-07T14:34:39.495Z,17.12
2023-04-07T14:37:09.591Z,18.89
2023-04-07T14:39:39.732Z,18.32
2023-04-07T14:42:10.407Z,19.34
2023-04-07T14:44:43.486Z,20.39
2023-04-07T14:47:13.668Z,21.43
2023-04-07T14:49:43.793Z,21.80
2023-04-07T14:52:14.308Z,21.91
2023-04-07T14:54:44.667Z,23.08
2023-04-07T14:57:14.780Z,23.69
2023-04-07T14:59:47.627Z,23.71
2023-04-07T15:02:17.986Z,25.18
2023-04-07T15:04:48.303Z,25.92
2023-04-07T15:07:18.626Z,26.17
2023-04-07T15:09:50.522Z,26.51
2023-04-07T15:12:20.763Z,26.54
2023-04-07T15:14:54.260Z,27.70
2023-04-07T15:17:36.322Z,27.80
2023-04-07T15:20:13.288Z,27.68
2023-04-07T15:22:43.971Z,28.13
2023-04-07T15:25:14.081Z,28.24
2023-04-07T15:27:44.417Z,29.11
2023-04-07T15:30:17.511Z,29.19
2023-04-07T15:33:00.676Z,29.65
2023-04-07T15:35:30.941Z,29.13
2023-04-07T15:38:01.129Z,29.77
2023-04-07T15:40:31.254Z,30.37
2023-04-07T15:43:01.433Z,30.63
2023-04-07T15:45:34.151Z,30.54
2023-04-07T15:48:04.326Z,30.46
2023-04-07T15:50:35.132Z,30.74
2023-04-07T15:53:05.371Z,31.00
2023-04-07T15:55:35.605Z,31.71
2023-04-07T15:58:08.275Z,31.41
2023-04-07T16:00:42.002Z,32.16
2023-04-07T16:03:12.237Z,32.74
2023-04-07T16:05:42.501Z,32.43
2023-04-07T16:08:13.881Z,32.69
2023-04-07T16:10:44.205Z,33.33
2023-04-07T16:13:14.733Z,33.40
2023-04-07T16:15:47.619Z,33.67
2023-04-07T16:18:17.923Z,33.62
2023-04-07T16:20:48.056Z,33.93
2023-04-07T16:23:18.205Z,33.97
2023-04-07T16:25:48.313Z,34.47
2023-04-07T16:28:18.446Z,34.25
2023-04-07T16:30:51.256Z,34.89
2023-04-07T16:33:21.407Z,35.50
2023-04-07T16:35:51.552Z,35.74
2023-04-07T16:38:23.225Z,36.18
2023-04-07T16:41:03.311Z,36.20
2023-04-07T16:43:34.564Z,35.65
2023-04-07T16:46:07.671Z,36.14
2023-04-07T16:48:38.005Z,36.63
2023-04-07T16:51:09.171Z,36.90
2023-04-07T16:53:39.319Z,37.27
2023-04-07T16:56:09.865Z,37.21
2023-04-07T16:58:39.987Z,37.40
2023-04-07T17:01:12.815Z,37.56
2023-04-07T17:03:43.476Z,36.86
2023-04-07T17:06:13.644Z,36.86
2023-04-07T17:08:43.853Z,37.73
2023-04-07T17:11:15.089Z,38.15
2023-04-07T17:13:45.257Z,37.98
2023-04-07T17:16:18.126Z,37.56
2023-04-07T17:18:48.391Z,37.44
2023-04-07T17:21:18.595Z,37.33
2023-04-07T17:23:49.025Z,36.93
2023-04-07T17:26:19.341Z,37.29
2023-04-07T17:28:49.469Z,36.16
2023-04-07T17:31:22.276Z,37.65
2023-04-07T17:33:53.034Z,37.93
2023-04-07T17:36:23.165Z,37.45
2023-04-07T17:38:53.322Z,37.72
2023-04-07T17:41:23.443Z,37.32
2023-04-07T17:43:53.570Z,38.54
2023-04-07T17:46:27.624Z,38.29
2023-04-07T17:48:59.103Z,38.32
2023-04-07T17:51:29.860Z,38.67
2023-04-07T17:54:00.062Z,38.83
2023-04-07T17:56:30.929Z,39.05
2023-04-07T17:59:01.442Z,39.38
2023-04-07T18:01:34.709Z,40.01
2023-04-07T18:04:06.685Z,40.60
2023-04-07T18:06:37.252Z,40.79
2023-04-07T18:09:07.647Z,41.58
2023-04-07T18:11:37.910Z,41.18
2023-04-07T18:14:08.154Z,41.21
2023-04-07T18:16:40.973Z,41.11
2023-04-07T18:19:11.097Z,41.23
2023-04-07T18:21:41.252Z,41.22
2023-04-07T18:24:11.628Z,41.76
2023-04-07T18:26:43.910Z,41.49
2023-04-07T18:29:15.054Z,41.68
2023-04-07T18:31:48.008Z,41.77
2023-04-07T18:34:18.286Z,41.87
2023-04-07T18:36:48.455Z,42.13
2023-04-07T18:39:19.269Z,42.41
2023-04-07T18:41:49.485Z,42.24
2023-04-07T18:44:19.596Z,42.69
2023-04-07T18:46:53.866Z,42.77
2023-04-07T18:49:24.752Z,42.94
2023-04-07T18:51:56.082Z,43.44
2023-04-07T18:54:28.417Z,44.51
2023-04-07T18:56:59.063Z,45.30
2023-04-07T18:59:29.453Z,46.86
2023-04-07T19:02:02.327Z,47.82
2023-04-07T19:04:32.586Z,48.25
2023-04-07T19:07:02.738Z,48.33
2023-04-07T19:09:33.471Z,49.20
2023-04-07T19:12:03.694Z,48.94
2023-04-07T19:14:33.793Z,48.43
2023-04-07T19:17:06.728Z,48.42
2023-04-07T19:19:37.694Z,48.53
2023-04-07T19:22:07.955Z,49.19
2023-04-07T19:24:38.225Z,49.29
2023-04-07T19:27:08.595Z,49.62
2023-04-07T19:29:38.742Z,49.98
2023-04-07T19:32:11.620Z,49.80
2023-04-07T19:34:41.802Z,50.27
2023-04-07T19:37:11.941Z,50.41
2023-04-07T19:39:46.936Z,51.23
2023-04-07T19:42:22.384Z,50.97
2023-04-07T19:44:55.068Z,51.17
2023-04-07T19:47:29.265Z,51.22
2023-04-07T19:49:59.357Z,51.35
2023-04-07T19:52:29.564Z,51.80
2023-04-07T19:54:59.933Z,51.63
2023-04-07T19:57:31.350Z,52.01
2023-04-07T20:00:02.110Z,52.04
2023-04-07T20:02:35.090Z,52.01
2023-04-07T20:05:05.419Z,52.65
2023-04-07T20:07:36.295Z,52.63
2023-04-07T20:10:06.949Z,52.49
2023-04-07T20:12:37.243Z,53.32
2023-04-07T20:15:08.678Z,53.03
2023-04-07T20:17:41.617Z,53.14
2023-04-07T20:20:12.522Z,52.98
2023-04-07T20:22:42.922Z,53.04
2023-04-07T20:25:13.417Z,53.20
2023-04-07T20:27:45.621Z,53.55
2023-04-07T20:30:16.402Z,53.51
2023-04-07T20:32:49.547Z,53.39
2023-04-07T20:35:19.970Z,53.62
2023-04-07T20:37:50.115Z,53.44
2023-04-07T20:40:20.576Z,53.14
2023-04-07T20:42:51.015Z,53.20
2023-04-07T20:45:21.795Z,52.95
2023-04-07T20:47:54.615Z,52.80
2023-04-07T20:50:24.982Z,52.53
2023-04-07T20:52:55.137Z,53.10
2023-04-07T20:55:25.359Z,53.30
2023-04-07T20:57:55.551Z,54.14
2023-04-07T21:00:26.336Z,54.61
2023-04-07T21:02:59.150Z,55.20
2023-04-07T21:05:29.594Z,55.22
2023-04-07T21:07:59.711Z,55.80
2023-04-07T21:10:29.906Z,56.60
2023-04-07T21:12:59.993Z,57.10
2023-04-07T21:15:30.266Z,57.19
2023-04-07T21:18:04.030Z,58.03
2023-04-07T21:20:34.215Z,58.35
2023-04-07T21:23:04.380Z,58.58
2023-04-07T21:25:34.698Z,59.15
2023-04-07T21:28:04.792Z,59.70
2023-04-07T21:30:35.751Z,60.05
2023-04-07T21:33:08.872Z,60.17
2023-04-07T21:35:39.006Z,60.22
2023-04-07T21:38:09.189Z,60.45
2023-04-07T21:40:39.324Z,60.58
2023-04-07T21:43:09.404Z,60.65
2023-04-07T21:45:39.542Z,61.07
2023-04-07T21:48:13.555Z,61.88
2023-04-07T21:50:43.782Z,62.28
2023-04-07T21:53:13.945Z,62.11
2023-04-07T21:55:44.243Z,62.33
2023-04-07T21:58:14.659Z,63.03
2023-04-07T22:00:44.830Z,63.22
2023-04-07T22:03:17.956Z,63.70
2023-04-07T22:05:48.386Z,63.97
2023-04-07T22:08:18.551Z,64.09
2023-04-07T22:10:48.723Z,64.79
2023-04-07T22:13:19.165Z,65.90
2023-04-07T22:15:50.369Z,66.50
2023-04-07T22:18:23.169Z,66.45
2023-04-07T22:20:53.388Z,66.69
2023-04-07T22:23:23.627Z,67.26
2023-04-07T22:25:55.539Z,68.29
2023-04-07T22:28:25.630Z,68.41
2023-04-07T22:30:55.920Z,69.17
2023-04-07T22:33:28.609Z,69.19
2023-04-07T22:35:58.789Z,69.52
2023-04-07T22:38:28.967Z,69.76
2023-04-07T22:40:59.165Z,70.25
2023-04-07T22:43:29.334Z,70.80
2023-04-07T22:45:59.515Z,71.50
2023-04-07T22:48:32.248Z,72.30
2023-04-07T22:51:02.478Z,72.49
2023-04-07T22:53:32.561Z,72.85
2023-04-07T22:56:02.893Z,73.46
2023-04-07T22:58:33.079Z,72.66
2023-04-07T23:01:03.453Z,73.57
2023-04-07T23:03:36.451Z,73.61
2023-04-07T23:06:07.012Z,73.97
2023-04-07T23:08:37.215Z,74.04
2023-04-07T23:11:07.965Z,74.76
2023-04-07T23:13:38.766Z,74.76
2023-04-07T23:16:09.888Z,74.97
2023-04-07T23:18:42.775Z,75.86
2023-04-07T23:21:13.635Z,77.01
2023-04-07T23:23:43.881Z,77.52
2023-04-07T23:26:14.046Z,77.67
2023-04-07T23:28:44.184Z,78.29
2023-04-07T23:31:14.524Z,77.38
2023-04-07T23:33:47.781Z,77.38
2023-04-07T23:36:18.074Z,77.70
2023-04-07T23:38:48.428Z,78.21
2023-04-07T23:41:18.740Z,78.24
2023-04-07T23:43:48.850Z,78.52
2023-04-07T23:46:19.042Z,78.54
2023-04-07T23:48:52.058Z,78.62
2023-04-07T23:51:23.081Z,78.66
2023-04-07T23:53:53.512Z,78.55
2023-04-07T23:56:23.960Z,77.95
2023-04-07T23:58:54.164Z,78.26
